Time;durP1;ratioP1;P1;durP2;ratioP2;P2;SDS_P1;SDS_P2;PMS_P1;PMS_P2;Temp;Humidity;BMP_temperature;BMP_pressure;BME280_temperature;BME280_humidity;BME280_pressure;Samples;Min_cycle;Max_cycle;Signal;HPM_P1;HPM_P2
2022/04/14 00:00:14;;;;;;;18.50;10.18;;;;;;;;;;5033481;28;20041;-86
2022/04/14 00:02:40;;;;;;;17.52;9.32;;;;;;;;;;5029066;28;20067;-86
2022/04/14 00:05:07;;;;;;;20.60;9.80;;;;;;;;;;5057358;28;20037;-86
2022/04/14 00:07:33;;;;;;;14.50;9.00;;;;;;;;;;5047037;28;20075;-87
2022/04/14 00:10:00;;;;;;;14.73;8.98;;;;;;;;;;5062266;28;20099;-86
2022/04/14 00:12:28;;;;;;;14.10;9.18;;;;;;;;;;5050581;28;20041;-86
2022/04/14 00:15:05;;;;;;;15.70;9.90;;;;;;;;;;5029183;28;20053;-85
2022/04/14 00:20:32;;;;;;;16.83;9.13;;;;;;;;;;5049530;28;20052;-86
2022/04/14 00:23:01;;;;;;;16.60;8.98;;;;;;;;;;5025903;28;20097;-85
2022/04/14 00:25:27;;;;;;;18.23;9.90;;;;;;;;;;5051031;28;20060;-85
2022/04/14 00:27:53;;;;;;;16.48;9.30;;;;;;;;;;5060691;28;20559;-86
2022/04/14 00:30:24;;;;;;;15.30;9.13;;;;;;;;;;5035650;28;20048;-86
2022/04/14 00:32:50;;;;;;;15.18;9.20;;;;;;;;;;5040486;28;20053;-86
2022/04/14 00:35:16;;;;;;;15.05;9.65;;;;;;;;;;5012476;28;20046;-86
2022/04/14 00:37:42;;;;;;;15.02;9.18;;;;;;;;;;5034008;28;20053;-86
2022/04/14 00:40:08;;;;;;;15.63;8.38;;;;;;;;;;5037604;28;20045;-86
2022/04/14 00:42:34;;;;;;;16.85;9.60;;;;;;;;;;5030795;28;20475;-87
2022/04/14 00:45:23;;;;;;;15.48;9.82;;;;;;;;;;5058519;28;20402;-86
2022/04/14 00:47:59;;;;;;;;;;;;;;;;;;;;;
2022/04/14 00:50:31;;;;;;;16.52;9.95;;;;;;;;;;5028310;28;20059;-85
2022/04/14 00:53:02;;;;;;;;;;;;;;;;;;5012460;28;20100;-86
2022/04/14 00:55:28;;;;;;;;;;;;;;;;;;5017736;28;20012;-85
2022/04/14 00:57:57;;;;;;;16.52;9.45;;;;;;;;;;5047875;28;19972;-85
2022/04/14 01:00:32;;;;;;;15.95;9.40;;;;;;;;;;5024163;28;20041;-85
2022/04/14 01:03:05;;;;;;;15.02;9.55;;;;;;;;;;5023798;28;20071;-86
2022/04/14 01:05:42;;;;;;;;;;;;;;;;;;;;;
2022/04/14 01:08:10;;;;;;;15.77;9.50;;;;;;;;;;5029823;28;20107;-84
2022/04/14 01:10:41;;;;;;;15.05;9.20;;;;;;;;;;5020661;28;20096;-86
2022/04/14 01:13:10;;;;;;;14.75;9.40;;;;;;;;;;5041273;28;20049;-85
2022/04/14 01:18:25;;;;;;;15.15;10.13;;;;;;;;;;5037843;28;20148;-84
2022/04/14 01:20:51;;;;;;;16.77;9.63;;;;;;;;;;5034337;28;20048;-85
2022/04/14 01:23:19;;;;;;;15.05;9.45;;;;;;;;;;5052624;28;20038;-85
2022/04/14 01:25:46;;;;;;;15.35;9.82;;;;;;;;;;5049189;28;20051;-85
2022/04/14 01:28:12;;;;;;;16.63;11.02;;;;;;;;;;5047740;28;20104;-86
2022/04/14 01:30:38;;;;;;;14.63;10.15;;;;;;;;;;5052704;28;20101;-86
2022/04/14 01:33:05;;;;;;;14.55;9.68;;;;;;;;;;5024960;28;20088;-85
2022/04/14 01:35:31;;;;;;;19.17;10.48;;;;;;;;;;5040037;28;20489;-84
2022/04/14 01:37:57;;;;;;;16.08;11.52;;;;;;;;;;5004982;28;20060;-86
2022/04/14 01:40:23;;;;;;;18.77;11.77;;;;;;;;;;5044113;28;20048;-84
2022/04/14 01:42:49;;;;;;;16.48;10.95;;;;;;;;;;5044647;28;20048;-85
2022/04/14 01:45:18;;;;;;;15.65;10.93;;;;;;;;;;5062721;28;20049;-85
2022/04/14 01:47:47;;;;;;;17.23;11.68;;;;;;;;;;5011306;28;20054;-86
2022/04/14 01:50:14;;;;;;;20.05;12.25;;;;;;;;;;5024740;28;20045;-86
2022/04/14 01:52:41;;;;;;;18.30;12.52;;;;;;;;;;5041492;28;20034;-86
2022/04/14 01:55:10;;;;;;;20.58;13.90;;;;;;;;;;5033282;28;20128;-85
2022/04/14 01:57:36;;;;;;;20.77;13.93;;;;;;;;;;5040973;28;20128;-85
2022/04/14 02:00:04;;;;;;;19.77;14.25;;;;;;;;;;5052121;28;20038;-86
2022/04/14 02:02:30;;;;;;;19.98;14.88;;;;;;;;;;5038973;28;20057;-85
2022/04/14 02:04:59;;;;;;;23.13;14.68;;;;;;;;;;5051949;28;20041;-85
2022/04/14 02:07:25;;;;;;;21.23;15.20;;;;;;;;;;5026159;28;20101;-86
2022/04/14 02:09:51;;;;;;;19.60;15.07;;;;;;;;;;5061627;28;20071;-86
2022/04/14 02:12:17;;;;;;;19.98;15.70;;;;;;;;;;5057517;28;20072;-85
2022/04/14 02:14:43;;;;;;;21.52;15.02;;;;;;;;;;5053374;28;20056;-85
2022/04/14 02:17:12;;;;;;;20.83;15.85;;;;;;;;;;5054397;28;20041;-84
2022/04/14 02:19:38;;;;;;;21.98;16.10;;;;;;;;;;5010976;28;20049;-85
2022/04/14 02:22:04;;;;;;;22.90;15.68;;;;;;;;;;5058104;28;20045;-85
2022/04/14 02:24:30;;;;;;;21.92;15.25;;;;;;;;;;5047123;28;20040;-85
2022/04/14 02:26:56;;;;;;;20.05;15.75;;;;;;;;;;5061860;28;20041;-86
2022/04/14 02:29:32;;;;;;;24.75;17.05;;;;;;;;;;5050606;28;20041;-85
2022/04/14 02:31:58;;;;;;;21.80;15.98;;;;;;;;;;5046479;28;20060;-86
2022/04/14 02:34:28;;;;;;;26.88;17.17;;;;;;;;;;5027719;28;20053;-85
2022/04/14 02:37:11;;;;;;;21.75;17.25;;;;;;;;;;5043809;28;20045;-85
2022/04/14 02:39:39;;;;;;;22.95;17.60;;;;;;;;;;5035521;28;20583;-85
2022/04/14 02:42:06;;;;;;;22.73;16.75;;;;;;;;;;5042024;28;20041;-85
2022/04/14 02:44:32;;;;;;;22.52;17.77;;;;;;;;;;5022023;28;20046;-84
2022/04/14 02:46:58;;;;;;;23.65;16.70;;;;;;;;;;5039794;28;20045;-85
2022/04/14 02:49:24;;;;;;;21.50;16.42;;;;;;;;;;5041122;28;20045;-85
2022/04/14 02:51:51;;;;;;;23.58;16.85;;;;;;;;;;5039640;28;20042;-85
2022/04/14 02:54:17;;;;;;;20.48;16.08;;;;;;;;;;5040079;28;20042;-86
2022/04/14 02:56:43;;;;;;;24.48;17.50;;;;;;;;;;5042333;28;20081;-84
2022/04/14 02:59:09;;;;;;;23.88;17.42;;;;;;;;;;5023871;28;20038;-85
2022/04/14 03:01:35;;;;;;;24.45;19.42;;;;;;;;;;5039369;28;20041;-85
2022/04/14 03:04:01;;;;;;;26.05;18.52;;;;;;;;;;5041454;28;20529;-85
2022/04/14 03:06:27;;;;;;;28.58;19.35;;;;;;;;;;5041623;28;20076;-85
2022/04/14 03:08:53;;;;;;;27.55;19.27;;;;;;;;;;5044042;28;20077;-85
2022/04/14 03:11:19;;;;;;;26.27;18.52;;;;;;;;;;5027719;28;20517;-85
2022/04/14 03:13:48;;;;;;;25.63;18.60;;;;;;;;;;5027869;28;20041;-85
2022/04/14 03:16:34;;;;;;;26.80;20.83;;;;;;;;;;5026092;28;20046;-86
2022/04/14 03:19:00;;;;;;;25.60;20.92;;;;;;;;;;5038260;28;20050;-86
2022/04/14 03:21:46;;;;;;;27.27;19.60;;;;;;;;;;5053847;28;20072;-85
2022/04/14 03:24:15;;;;;;;24.15;18.90;;;;;;;;;;5045470;28;20046;-85
2022/04/14 03:26:44;;;;;;;25.23;19.73;;;;;;;;;;5058797;28;20041;-85
2022/04/14 03:29:10;;;;;;;25.73;19.88;;;;;;;;;;5047823;28;20045;-85
2022/04/14 03:31:39;;;;;;;25.50;19.52;;;;;;;;;;5050129;28;20072;-84
2022/04/14 03:34:05;;;;;;;26.33;19.63;;;;;;;;;;5058958;28;21904;-85
2022/04/14 03:36:41;;;;;;;27.25;21.67;;;;;;;;;;5013252;28;20052;-83
2022/04/14 03:42:18;;;;;;;26.52;20.85;;;;;;;;;;5035187;28;20060;-84
2022/04/14 03:44:44;;;;;;;29.15;20.90;;;;;;;;;;5035019;28;20061;-86
2022/04/14 03:47:18;;;;;;;28.67;22.20;;;;;;;;;;5065677;28;20044;-86
2022/04/14 03:52:50;;;;;;;27.77;22.45;;;;;;;;;;5057865;28;20046;-85
2022/04/14 03:55:31;;;;;;;30.10;22.95;;;;;;;;;;5027868;28;20050;-85
2022/04/14 03:58:27;;;;;;;;;;;;;;;;;;;;;
2022/04/14 04:01:03;;;;;;;31.02;22.98;;;;;;;;;;5030738;28;20045;-85
2022/04/14 04:03:39;;;;;;;27.65;21.33;;;;;;;;;;5052513;28;20045;-85
2022/04/14 04:06:17;;;;;;;;;;;;;;;;;;;;;
2022/04/14 04:08:44;;;;;;;30.27;22.77;;;;;;;;;;5026555;28;20500;-84
2022/04/14 04:11:13;;;;;;;35.58;25.23;;;;;;;;;;5046995;28;20422;-86
2022/04/14 04:13:41;;;;;;;32.53;24.95;;;;;;;;;;5028450;28;20045;-85
2022/04/14 04:16:20;;;;;;;31.85;25.27;;;;;;;;;;5027783;28;20053;-86
2022/04/14 04:18:51;;;;;;;33.47;25.77;;;;;;;;;;5046059;28;20048;-86
2022/04/14 04:21:31;;;;;;;29.00;24.02;;;;;;;;;;5041851;28;20036;-86
2022/04/14 04:23:59;;;;;;;37.72;28.02;;;;;;;;;;5044497;28;20056;-85
2022/04/14 04:26:28;;;;;;;35.17;24.60;;;;;;;;;;5057031;28;20121;-86
2022/04/14 04:29:07;;;;;;;;;;;;;;;;;;;;;
2022/04/14 04:37:22;;;;;;;34.72;26.58;;;;;;;;;;5033487;28;20067;-86
2022/04/14 04:40:16;;;;;;;35.67;27.98;;;;;;;;;;5028837;28;20053;-85
2022/04/14 04:43:02;;;;;;;35.08;27.40;;;;;;;;;;5024199;28;20048;-87
2022/04/14 04:45:53;;;;;;;;;;;;;;;;;;;;;
2022/04/14 04:48:28;;;;;;;30.52;24.55;;;;;;;;;;5060769;28;20079;-83
2022/04/14 04:51:14;;;;;;;28.75;23.73;;;;;;;;;;5051942;28;20046;-84
2022/04/14 04:53:47;;;;;;;30.15;22.90;;;;;;;;;;5029106;28;20063;-85
2022/04/14 04:56:17;;;;;;;33.90;24.05;;;;;;;;;;5050299;28;20094;-85
2022/04/14 04:58:54;;;;;;;;;;;;;;;;;;;;;
2022/04/14 05:01:46;;;;;;;27.92;23.73;;;;;;;;;;5045809;28;20092;-86
2022/04/14 05:04:11;;;;;;;29.52;23.83;;;;;;;;;;5041100;28;20041;-85
2022/04/14 05:06:49;;;;;;;37.63;26.63;;;;;;;;;;5047973;28;20048;-84
2022/04/14 05:09:23;;;;;;;32.67;26.27;;;;;;;;;;5023365;28;20049;-85
2022/04/14 05:11:52;;;;;;;31.83;25.67;;;;;;;;;;5028150;28;20056;-85
2022/04/14 05:14:20;;;;;;;35.47;27.35;;;;;;;;;;5063291;28;20040;-86
2022/04/14 05:16:49;;;;;;;31.98;24.48;;;;;;;;;;5047326;28;20042;-84
2022/04/14 05:19:15;;;;;;;35.45;25.35;;;;;;;;;;5037384;28;20072;-85
2022/04/14 05:21:51;;;;;;;33.22;25.85;;;;;;;;;;5048575;28;20103;-86
2022/04/14 05:24:21;;;;;;;35.78;26.80;;;;;;;;;;5030031;28;20045;-85
2022/04/14 05:27:00;;;;;;;41.08;29.50;;;;;;;;;;5031298;28;20080;-85
2022/04/14 05:30:02;;;;;;;38.55;29.73;;;;;;;;;;5053995;28;20064;-87
2022/04/14 05:32:28;;;;;;;;;;;;;;;;;;5044808;28;20056;-86
2022/04/14 05:34:53;;;;;;;39.28;29.42;;;;;;;;;;5052749;28;19944;-86
2022/04/14 05:37:28;;;;;;;39.38;31.98;;;;;;;;;;5027244;28;20041;-85
2022/04/14 05:40:06;;;;;;;43.88;34.13;;;;;;;;;;5011407;28;20069;-86
2022/04/14 05:42:45;;;;;;;38.28;30.45;;;;;;;;;;5026684;28;20079;-86
2022/04/14 05:45:48;;;;;;;;;;;;;;;;;;;;;
2022/04/14 05:48:07;;;;;;;37.97;29.08;;;;;;;;;;5038563;28;20059;-85
2022/04/14 05:50:33;;;;;;;33.10;26.58;;;;;;;;;;5050877;28;20555;-86
2022/04/14 05:52:59;;;;;;;38.63;29.10;;;;;;;;;;5057504;28;20045;-86
2022/04/14 05:55:25;;;;;;;36.17;26.90;;;;;;;;;;5051547;28;20037;-86
2022/04/14 05:57:51;;;;;;;31.75;28.00;;;;;;;;;;5008332;28;20048;-88
2022/04/14 06:00:20;;;;;;;33.33;27.52;;;;;;;;;;5036491;28;20213;-86
2022/04/14 06:02:48;;;;;;;34.38;26.55;;;;;;;;;;5006572;28;20042;-85
2022/04/14 06:05:22;;;;;;;33.90;27.02;;;;;;;;;;5015502;28;20053;-86
2022/04/14 06:07:58;;;;;;;;;;;;;;;;;;;;;
2022/04/14 06:10:25;;;;;;;33.65;24.98;;;;;;;;;;5055236;28;20057;-86
2022/04/14 06:15:42;;;;;;;30.15;24.77;;;;;;;;;;5016326;28;20053;-86
2022/04/14 06:18:21;;;;;;;;;;;;;;;;;;;;;
2022/04/14 06:20:59;;;;;;;29.17;24.65;;;;;;;;;;5031476;28;20060;-84
2022/04/14 06:23:36;;;;;;;29.55;23.90;;;;;;;;;;5041575;28;20049;-85
2022/04/14 06:26:26;;;;;;;28.85;23.88;;;;;;;;;;5041943;28;20045;-86
2022/04/14 06:29:33;;;;;;;31.48;24.15;;;;;;;;;;5047518;28;20423;-87
2022/04/14 06:32:03;;;;;;;28.33;24.30;;;;;;;;;;5041291;28;20112;-86
2022/04/14 06:34:31;;;;;;;;;;;;;;;;;;5024666;28;20045;-86
2022/04/14 06:36:57;;;;;;;29.60;25.52;;;;;;;;;;5036532;28;19925;-85
2022/04/14 06:39:23;;;;;;;30.30;26.25;;;;;;;;;;5042690;28;20045;-87
2022/04/14 06:41:50;;;;;;;32.85;27.42;;;;;;;;;;5028612;28;20037;-87
2022/04/14 06:44:16;;;;;;;30.95;25.77;;;;;;;;;;5034813;28;20057;-86
2022/04/14 06:46:42;;;;;;;29.17;25.83;;;;;;;;;;5013257;28;20088;-87
2022/04/14 06:49:08;;;;;;;28.50;24.85;;;;;;;;;;5046909;28;20038;-85
2022/04/14 06:51:34;;;;;;;29.00;25.77;;;;;;;;;;5046411;28;20097;-84
2022/04/14 06:54:01;;;;;;;31.60;25.20;;;;;;;;;;5028306;28;20049;-84
2022/04/14 06:56:27;;;;;;;29.65;25.65;;;;;;;;;;5027873;28;20053;-83
2022/04/14 06:58:53;;;;;;;28.17;24.63;;;;;;;;;;5027990;28;20124;-84
2022/04/14 07:01:19;;;;;;;29.35;24.88;;;;;;;;;;5046939;28;20045;-83
2022/04/14 07:03:45;;;;;;;27.95;24.27;;;;;;;;;;5031691;28;20057;-84
2022/04/14 07:06:14;;;;;;;28.65;24.33;;;;;;;;;;5044671;28;20042;-83
2022/04/14 07:08:40;;;;;;;26.17;23.38;;;;;;;;;;5026789;28;20056;-86
2022/04/14 07:11:06;;;;;;;28.60;23.30;;;;;;;;;;5022363;28;20529;-83
2022/04/14 07:13:32;;;;;;;28.60;23.67;;;;;;;;;;5040466;28;20059;-85
2022/04/14 07:16:00;;;;;;;25.70;22.67;;;;;;;;;;5047959;28;20467;-84
2022/04/14 07:18:26;;;;;;;26.38;21.50;;;;;;;;;;5026729;28;20133;-84
2022/04/14 07:20:55;;;;;;;27.23;23.30;;;;;;;;;;5045693;28;20483;-84
2022/04/14 07:23:21;;;;;;;24.58;22.05;;;;;;;;;;5035896;28;20395;-85
2022/04/14 07:25:47;;;;;;;24.95;21.48;;;;;;;;;;5050240;28;20123;-85
2022/04/14 07:28:14;;;;;;;26.63;22.55;;;;;;;;;;5041266;28;20053;-85
2022/04/14 07:30:42;;;;;;;26.60;20.58;;;;;;;;;;5027988;28;20053;-86
2022/04/14 07:33:09;;;;;;;23.52;20.95;;;;;;;;;;5045182;28;20065;-85
2022/04/14 07:35:35;;;;;;;22.55;20.13;;;;;;;;;;5059557;28;20037;-85
2022/04/14 07:38:01;;;;;;;24.75;20.40;;;;;;;;;;5047357;28;20045;-85
2022/04/14 07:40:27;;;;;;;22.98;19.40;;;;;;;;;;5046676;28;20041;-84
2022/04/14 07:42:55;;;;;;;23.42;19.80;;;;;;;;;;5058229;28;20116;-84
2022/04/14 07:45:21;;;;;;;23.80;19.40;;;;;;;;;;5059242;28;20037;-84
2022/04/14 07:47:48;;;;;;;23.63;20.55;;;;;;;;;;5035621;28;20053;-84
2022/04/14 07:50:15;;;;;;;22.02;18.38;;;;;;;;;;5045920;28;20101;-85
2022/04/14 07:52:59;;;;;;;22.73;18.13;;;;;;;;;;5011952;28;20113;-85
2022/04/14 07:55:26;;;;;;;21.38;17.75;;;;;;;;;;5031612;28;20042;-85
2022/04/14 07:57:53;;;;;;;20.48;17.02;;;;;;;;;;5062357;28;20037;-84
2022/04/14 08:00:20;;;;;;;19.33;16.70;;;;;;;;;;5027335;28;20052;-85
2022/04/14 08:02:47;;;;;;;18.52;16.20;;;;;;;;;;5044943;28;20060;-85
2022/04/14 08:05:18;;;;;;;19.60;16.75;;;;;;;;;;4993312;28;20033;-86
2022/04/14 08:07:47;;;;;;;21.35;16.92;;;;;;;;;;5045147;28;20095;-84
2022/04/14 08:10:16;;;;;;;19.90;17.10;;;;;;;;;;5043096;28;20114;-87
2022/04/14 08:12:42;;;;;;;20.05;17.13;;;;;;;;;;5028257;28;20080;-84
2022/04/14 08:15:10;;;;;;;20.63;17.42;;;;;;;;;;5010315;28;20067;-85
2022/04/14 08:17:39;;;;;;;21.80;16.58;;;;;;;;;;5020377;28;20064;-85
2022/04/14 08:20:06;;;;;;;20.45;16.10;;;;;;;;;;5032214;28;20476;-85
2022/04/14 08:22:45;;;;;;;17.98;15.95;;;;;;;;;;5052390;28;20048;-85
2022/04/14 08:25:13;;;;;;;20.75;16.63;;;;;;;;;;5009115;28;20056;-84
2022/04/14 08:27:39;;;;;;;20.13;15.52;;;;;;;;;;5009657;28;20451;-84
2022/04/14 08:30:05;;;;;;;17.50;14.80;;;;;;;;;;5042559;28;20451;-83
2022/04/14 08:32:34;;;;;;;18.08;15.02;;;;;;;;;;5055162;28;20049;-85
2022/04/14 08:35:03;;;;;;;19.05;16.17;;;;;;;;;;5026419;28;20055;-85
2022/04/14 08:37:32;;;;;;;19.92;15.48;;;;;;;;;;5052465;28;20045;-83
2022/04/14 08:39:58;;;;;;;18.25;15.38;;;;;;;;;;5025851;28;20252;-84
2022/04/14 08:42:44;;;;;;;18.80;15.75;;;;;;;;;;5025613;28;20057;-84
2022/04/14 08:45:14;;;;;;;19.73;17.63;;;;;;;;;;5046145;28;20061;-84
2022/04/14 08:47:41;;;;;;;20.42;18.25;;;;;;;;;;5061702;28;20045;-85
2022/04/14 08:50:13;;;;;;;19.45;17.35;;;;;;;;;;5046927;28;20041;-83
2022/04/14 08:52:40;;;;;;;19.77;16.80;;;;;;;;;;5044440;28;20102;-85
2022/04/14 08:55:08;;;;;;;20.48;17.08;;;;;;;;;;5043957;28;20064;-84
2022/04/14 08:57:35;;;;;;;19.80;16.63;;;;;;;;;;5027477;28;20037;-83
2022/04/14 09:00:02;;;;;;;19.23;16.88;;;;;;;;;;5044914;28;20053;-84
2022/04/14 09:02:28;;;;;;;19.42;16.23;;;;;;;;;;5038168;28;20055;-83
2022/04/14 09:04:56;;;;;;;19.35;16.35;;;;;;;;;;5017669;28;20056;-85
2022/04/14 09:07:22;;;;;;;19.70;16.55;;;;;;;;;;5027414;28;20045;-85
2022/04/14 09:09:48;;;;;;;19.42;17.33;;;;;;;;;;5025620;28;20109;-85
2022/04/14 09:12:14;;;;;;;19.80;16.67;;;;;;;;;;5040174;28;20052;-84
2022/04/14 09:14:41;;;;;;;22.15;16.17;;;;;;;;;;5042805;28;20053;-85
2022/04/14 09:17:07;;;;;;;17.63;15.40;;;;;;;;;;5041653;28;20052;-85
2022/04/14 09:19:34;;;;;;;20.20;15.40;;;;;;;;;;5023788;28;20079;-85
2022/04/14 09:22:04;;;;;;;16.73;13.88;;;;;;;;;;5025927;28;20041;-82
2022/04/14 09:24:40;;;;;;;17.83;15.50;;;;;;;;;;5024971;28;20046;-85
2022/04/14 09:27:07;;;;;;;18.08;15.07;;;;;;;;;;5024466;28;20091;-85
2022/04/14 09:29:33;;;;;;;17.52;15.63;;;;;;;;;;5042247;28;20064;-84
2022/04/14 09:31:59;;;;;;;18.83;15.05;;;;;;;;;;5041854;28;20053;-84
2022/04/14 09:34:41;;;;;;;16.42;14.35;;;;;;;;;;5042825;28;20535;-84
2022/04/14 09:37:08;;;;;;;18.33;14.93;;;;;;;;;;5024588;28;20046;-85
2022/04/14 09:39:53;;;;;;;16.55;14.60;;;;;;;;;;5042771;28;20048;-84
2022/04/14 09:42:24;;;;;;;19.95;15.65;;;;;;;;;;5041074;28;20122;-83
2022/04/14 09:44:51;;;;;;;19.07;15.17;;;;;;;;;;5046547;28;20101;-82
2022/04/14 09:47:38;;;;;;;15.73;13.68;;;;;;;;;;5025795;28;20288;-83
2022/04/14 09:50:05;;;;;;;16.70;13.60;;;;;;;;;;5024828;28;20053;-83
2022/04/14 09:52:31;;;;;;;18.67;15.13;;;;;;;;;;5021881;28;20488;-83
2022/04/14 09:55:07;;;;;;;19.65;15.43;;;;;;;;;;5055700;28;20045;-83
2022/04/14 09:57:33;;;;;;;17.02;14.40;;;;;;;;;;5045213;28;20044;-83
2022/04/14 09:59:59;;;;;;;16.25;14.52;;;;;;;;;;5046006;28;20045;-82
2022/04/14 10:02:26;;;;;;;18.17;14.55;;;;;;;;;;5025708;28;20049;-82
2022/04/14 10:04:52;;;;;;;15.93;13.90;;;;;;;;;;5024807;28;20050;-83
2022/04/14 10:07:19;;;;;;;19.90;15.27;;;;;;;;;;5042568;28;20073;-85
2022/04/14 10:09:48;;;;;;;15.40;13.80;;;;;;;;;;5043426;28;20048;-84
2022/04/14 10:12:20;;;;;;;15.70;12.50;;;;;;;;;;5042957;28;20049;-84
2022/04/14 10:15:07;;;;;;;14.32;12.82;;;;;;;;;;5042282;28;20457;-84
2022/04/14 10:17:38;;;;;;;17.35;13.25;;;;;;;;;;5024797;28;20522;-85
2022/04/14 10:20:05;;;;;;;14.45;12.55;;;;;;;;;;5042871;28;20073;-83
2022/04/14 10:22:31;;;;;;;16.38;12.88;;;;;;;;;;5024862;28;20041;-84
2022/04/14 10:24:57;;;;;;;13.70;10.85;;;;;;;;;;5041074;28;20064;-83
2022/04/14 10:27:25;;;;;;;13.23;11.82;;;;;;;;;;5023248;28;20060;-83
2022/04/14 10:29:52;;;;;;;14.48;12.02;;;;;;;;;;5043012;28;20045;-85
2022/04/14 10:32:19;;;;;;;14.07;12.38;;;;;;;;;;5041974;28;20090;-84
2022/04/14 10:34:46;;;;;;;13.73;9.73;;;;;;;;;;5044193;28;20065;-84
2022/04/14 10:37:16;;;;;;;11.88;9.25;;;;;;;;;;5044267;28;20041;-84
2022/04/14 10:39:46;;;;;;;14.80;11.77;;;;;;;;;;5041855;28;20064;-84
2022/04/14 10:42:13;;;;;;;11.93;10.48;;;;;;;;;;5039537;28;20041;-84
2022/04/14 10:44:45;;;;;;;13.23;9.77;;;;;;;;;;5042729;28;20422;-84
2022/04/14 10:47:13;;;;;;;13.73;9.68;;;;;;;;;;5023248;28;20046;-83
2022/04/14 10:49:41;;;;;;;13.15;9.38;;;;;;;;;;5024474;28;20069;-83
2022/04/14 10:52:22;;;;;;;11.48;8.27;;;;;;;;;;5006968;28;20095;-83
2022/04/14 10:54:58;;;;;;;11.52;9.48;;;;;;;;;;5040816;28;20060;-83
2022/04/14 10:57:40;;;;;;;13.40;8.20;;;;;;;;;;5038931;28;20038;-84
2022/04/14 11:00:19;;;;;;;12.48;8.07;;;;;;;;;;5038961;28;20045;-84
2022/04/14 11:03:04;;;;;;;12.82;7.57;;;;;;;;;;5022507;28;20084;-85
2022/04/14 11:05:40;;;;;;;8.80;6.10;;;;;;;;;;5053029;28;20033;-85
2022/04/14 11:08:25;;;;;;;9.93;6.63;;;;;;;;;;5039012;28;20109;-84
2022/04/14 11:10:53;;;;;;;10.88;7.57;;;;;;;;;;5041996;28;20049;-82
2022/04/14 11:13:22;;;;;;;10.10;5.97;;;;;;;;;;5055434;28;20045;-84
2022/04/14 11:15:50;;;;;;;11.55;6.60;;;;;;;;;;5040317;28;20125;-85
2022/04/14 11:18:16;;;;;;;11.13;7.32;;;;;;;;;;5020448;28;20038;-83
2022/04/14 11:20:48;;;;;;;13.00;6.90;;;;;;;;;;5024791;28;20049;-82
2022/04/14 11:23:24;;;;;;;8.13;5.55;;;;;;;;;;5006246;28;20053;-83
2022/04/14 11:26:02;;;;;;;8.18;5.70;;;;;;;;;;5024947;28;20053;-84
2022/04/14 11:28:30;;;;;;;10.02;4.60;;;;;;;;;;5043323;28;20048;-81
2022/04/14 11:30:59;;;;;;;8.43;4.97;;;;;;;;;;5028748;28;20410;-83
2022/04/14 11:33:34;;;;;;;10.43;5.22;;;;;;;;;;5059562;28;20414;-82
2022/04/14 11:36:10;;;;;;;8.30;3.97;;;;;;;;;;5056818;28;20048;-82
2022/04/14 11:38:57;;;;;;;9.35;4.88;;;;;;;;;;5043520;28;20037;-83
2022/04/14 11:41:36;;;;;;;8.52;4.90;;;;;;;;;;5027381;28;20042;-83
2022/04/14 11:44:04;;;;;;;8.07;4.43;;;;;;;;;;5025792;28;20053;-81
2022/04/14 11:46:30;;;;;;;9.23;4.75;;;;;;;;;;5030695;28;20068;-83
2022/04/14 11:48:56;;;;;;;7.85;3.22;;;;;;;;;;5046438;28;20148;-82
2022/04/14 11:51:22;;;;;;;8.20;3.40;;;;;;;;;;5018955;28;20399;-81
2022/04/14 11:53:53;;;;;;;7.68;3.70;;;;;;;;;;5044104;28;20050;-77
2022/04/14 11:56:20;;;;;;;7.55;4.05;;;;;;;;;;5045091;28;20042;-80
2022/04/14 11:58:47;;;;;;;11.05;3.50;;;;;;;;;;5044242;28;20045;-82
2022/04/14 12:01:13;;;;;;;8.73;3.10;;;;;;;;;;5044049;28;20033;-84
2022/04/14 12:03:39;;;;;;;8.52;2.83;;;;;;;;;;5021452;28;20060;-82
2022/04/14 12:06:06;;;;;;;6.82;3.10;;;;;;;;;;5047110;28;20104;-81
2022/04/14 12:08:33;;;;;;;6.60;3.30;;;;;;;;;;5028983;28;20053;-83
2022/04/14 12:11:17;;;;;;;6.78;2.40;;;;;;;;;;5034675;28;20486;-83
2022/04/14 12:13:44;;;;;;;8.93;3.13;;;;;;;;;;5061944;28;20114;-82
2022/04/14 12:16:11;;;;;;;11.15;3.83;;;;;;;;;;5059772;28;20045;-81
2022/04/14 12:18:38;;;;;;;9.48;3.60;;;;;;;;;;5060890;28;20517;-81
2022/04/14 12:21:05;;;;;;;10.32;2.95;;;;;;;;;;5058567;28;20053;-82
2022/04/14 12:23:31;;;;;;;5.78;2.35;;;;;;;;;;5009268;28;20104;-81
2022/04/14 12:25:58;;;;;;;5.95;2.55;;;;;;;;;;5044012;28;20073;-81
2022/04/14 12:28:24;;;;;;;8.07;3.10;;;;;;;;;;5010624;28;20041;-81
2022/04/14 12:30:50;;;;;;;8.18;3.10;;;;;;;;;;5055995;28;20045;-81
2022/04/14 12:33:24;;;;;;;8.82;2.42;;;;;;;;;;5063909;28;20048;-80
2022/04/14 12:35:50;;;;;;;8.02;2.38;;;;;;;;;;5062147;28;20402;-82
2022/04/14 12:38:21;;;;;;;6.82;2.08;;;;;;;;;;5062250;28;20048;-82
2022/04/14 12:41:00;;;;;;;7.65;2.28;;;;;;;;;;5062132;28;20052;-83
2022/04/14 12:43:28;;;;;;;6.75;2.00;;;;;;;;;;5042777;28;20049;-82
2022/04/14 12:45:54;;;;;;;7.30;2.15;;;;;;;;;;5044058;28;20100;-81
2022/04/14 12:48:25;;;;;;;5.45;1.77;;;;;;;;;;5049018;28;20041;-82
2022/04/14 12:50:58;;;;;;;7.70;1.52;;;;;;;;;;5039881;28;20045;-82
2022/04/14 12:53:25;;;;;;;4.70;1.30;;;;;;;;;;5009880;28;20096;-81
2022/04/14 12:55:51;;;;;;;6.90;1.85;;;;;;;;;;5043158;28;20045;-82
2022/04/14 12:58:17;;;;;;;6.03;1.55;;;;;;;;;;5025774;28;20045;-81
2022/04/14 13:00:43;;;;;;;5.72;1.80;;;;;;;;;;5045141;28;20080;-82
2022/04/14 13:03:16;;;;;;;5.30;1.70;;;;;;;;;;5043502;28;20042;-81
2022/04/14 13:05:43;;;;;;;8.00;1.95;;;;;;;;;;5037024;28;20086;-81
2022/04/14 13:08:09;;;;;;;7.60;1.88;;;;;;;;;;5024808;28;20046;-81
2022/04/14 13:10:39;;;;;;;6.22;1.90;;;;;;;;;;5024151;28;20041;-81
2022/04/14 13:13:05;;;;;;;6.20;1.83;;;;;;;;;;5044432;28;20502;-82
2022/04/14 13:15:32;;;;;;;5.75;1.80;;;;;;;;;;5046299;28;20508;-81
2022/04/14 13:17:59;;;;;;;5.72;1.90;;;;;;;;;;5036358;28;20041;-84
2022/04/14 13:20:36;;;;;;;5.50;1.65;;;;;;;;;;5007619;28;20053;-81
2022/04/14 13:23:02;;;;;;;4.72;1.40;;;;;;;;;;5008381;28;20053;-83
2022/04/14 13:25:28;;;;;;;6.78;1.65;;;;;;;;;;5050037;28;20053;-83
2022/04/14 13:27:56;;;;;;;10.32;1.73;;;;;;;;;;5024958;28;20508;-85
2022/04/14 13:30:23;;;;;;;4.22;1.10;;;;;;;;;;5043119;28;20045;-82
2022/04/14 13:32:49;;;;;;;5.28;1.55;;;;;;;;;;5047798;28;20057;-83
2022/04/14 13:35:15;;;;;;;7.15;1.77;;;;;;;;;;5063179;28;20098;-84
2022/04/14 13:37:43;;;;;;;6.93;2.00;;;;;;;;;;5038632;28;20503;-83
2022/04/14 13:40:12;;;;;;;8.40;1.63;;;;;;;;;;5029402;28;20056;-82
2022/04/14 13:42:38;;;;;;;4.40;1.90;;;;;;;;;;5028965;28;20576;-81
2022/04/14 13:45:04;;;;;;;7.75;2.50;;;;;;;;;;5058564;28;20394;-81
2022/04/14 13:47:31;;;;;;;10.40;2.47;;;;;;;;;;5044721;28;20073;-81
2022/04/14 13:49:57;;;;;;;6.97;1.73;;;;;;;;;;5060921;28;20376;-81
2022/04/14 13:52:24;;;;;;;8.70;1.70;;;;;;;;;;5041118;28;20045;-80
2022/04/14 13:54:50;;;;;;;5.03;1.30;;;;;;;;;;5037223;28;20046;-81
2022/04/14 13:57:16;;;;;;;6.32;1.63;;;;;;;;;;5041773;28;20048;-80
2022/04/14 13:59:42;;;;;;;7.05;1.75;;;;;;;;;;5061782;28;20036;-81
2022/04/14 14:02:09;;;;;;;3.67;1.15;;;;;;;;;;5022976;28;20053;-81
2022/04/14 14:04:35;;;;;;;4.95;1.30;;;;;;;;;;5058698;28;20047;-81
2022/04/14 14:07:01;;;;;;;6.47;1.30;;;;;;;;;;5013229;28;20049;-81
2022/04/14 14:09:28;;;;;;;7.03;1.45;;;;;;;;;;5014848;28;20218;-81
2022/04/14 14:11:54;;;;;;;4.68;1.30;;;;;;;;;;5022348;28;20046;-81
2022/04/14 14:14:20;;;;;;;4.43;1.10;;;;;;;;;;5024616;28;20041;-81
2022/04/14 14:16:46;;;;;;;5.25;1.40;;;;;;;;;;5023094;28;20127;-81
2022/04/14 14:19:12;;;;;;;6.28;1.20;;;;;;;;;;5023784;28;20088;-81
2022/04/14 14:21:38;;;;;;;4.78;1.27;;;;;;;;;;5037470;28;20041;-80
2022/04/14 14:24:07;;;;;;;4.50;1.30;;;;;;;;;;5039030;28;20045;-81
2022/04/14 14:26:33;;;;;;;6.55;1.42;;;;;;;;;;5040464;28;20105;-80
2022/04/14 14:28:59;;;;;;;5.20;1.35;;;;;;;;;;5043236;28;20069;-80
2022/04/14 14:31:26;;;;;;;5.18;1.20;;;;;;;;;;5038243;28;20064;-81
2022/04/14 14:33:52;;;;;;;6.90;1.80;;;;;;;;;;5041165;28;20053;-80
2022/04/14 14:36:18;;;;;;;6.78;2.20;;;;;;;;;;5024159;28;20351;-82
2022/04/14 14:38:44;;;;;;;8.05;2.80;;;;;;;;;;4997538;28;20107;-81
2022/04/14 14:41:11;;;;;;;6.75;2.58;;;;;;;;;;5024446;28;20057;-81
2022/04/14 14:43:39;;;;;;;5.78;1.80;;;;;;;;;;5041624;28;20042;-81
2022/04/14 14:46:05;;;;;;;5.03;1.85;;;;;;;;;;5050570;28;20041;-82
2022/04/14 14:48:36;;;;;;;5.78;1.70;;;;;;;;;;5049974;28;20068;-81
2022/04/14 14:51:04;;;;;;;6.53;1.70;;;;;;;;;;5037897;28;20057;-81
2022/04/14 14:53:30;;;;;;;8.65;1.65;;;;;;;;;;5033594;28;20371;-82
2022/04/14 14:55:56;;;;;;;4.35;1.17;;;;;;;;;;5045085;28;20041;-80
2022/04/14 15:01:24;;;;;;;5.50;1.63;;;;;;;;;;5000616;28;20051;-80
2022/04/14 15:03:50;;;;;;;5.60;1.33;;;;;;;;;;4982775;28;20061;-81
2022/04/14 15:06:16;;;;;;;7.00;1.40;;;;;;;;;;4983414;28;20043;-80
2022/04/14 15:08:42;;;;;;;4.10;1.10;;;;;;;;;;4983302;28;20054;-80
2022/04/14 15:11:08;;;;;;;5.57;1.35;;;;;;;;;;4949058;29;20059;-80
2022/04/14 15:13:34;;;;;;;4.60;1.27;;;;;;;;;;4962728;28;20101;-79